Aviation Digital Data Service (ADDS)

Output produced by TAFs form (2346 UTC 18 July 2018)
found at http://www.aviationweather.gov/adds/tafs/
 
RJOH 182300Z VRB02KT 8000 FEW030 28/23 Q1011
TAF RJOH 182308Z 1900/2006 22004KT 9000 FEW030 
     BECMG 1900/1902 05006KT 
     BECMG 1912/1915 18004KT 
     BECMG 2000/2003 04006KT
       
RJOB 182300Z VRB01KT 8000 NSC 28/24 Q1012
TAF RJOB 182316Z 1900/2006 17005KT 9999 FEW020 SCT040 
     TEMPO 1906/1910 TS FEW020 FEW025CB SCT040 
     BECMG 1909/1911 04004KT
       
RJOA 182300Z 10004KT 040V160 8000 NSC 28/23 Q1013
TAF RJOA 182306Z 1900/2006 14005KT 9999 FEW025 
     TEMPO 1906/1910 TS FEW020 FEW025CB SCT035 
     BECMG 1909/1911 32004KT 
     BECMG 2000/2003 14006KT
       
RJOT 182300Z 05003KT 340V090 8000 NSC 29/25 Q1012
TAF RJOT 182309Z 1900/2006 06007KT 9999 FEW030
       
RJOC 182300Z 15005KT 8000 NSC 28/22 Q1011
TAF RJOC 182306Z 1900/2006 04005KT 9999 FEW035 
     BECMG 1912/1915 17005KT 
     BECMG 2000/2003 04005KT
       
RJFR 182300Z VRB02KT 9000 NSC 28/23 Q1011
TAF RJFR 182306Z 1900/2006 10003KT 9999 FEW030 
     BECMG 1912/1915 06007KT 
     BECMG 1921/2000 10008KT 
     BECMG 2003/2006 07010KT
       
RJFO 182300Z 19003KT CAVOK 28/25 Q1011
TAF RJFO 182306Z 1900/2006 14003KT 9999 FEW030 
     BECMG 1901/1903 07005KT 
     BECMG 1905/1907 14003KT
       
RJFU 182300Z 16003KT 130V200 6000 FEW020 29/25 Q1010
TAF RJFU 182306Z 1900/2006 33010KT 9999 FEW035 
     BECMG 1912/1915 15006KT 
     BECMG 2000/2003 30007KT
       
RJFT 182300Z 02003KT 330V060 7000 NSC 27/25 Q1012
TAF RJFT 182310Z 1900/2006 06005KT 9999 FEW035 
     BECMG 1904/1906 21006KT 
     BECMG 1912/1915 09008KT
       
RJFM 182300Z 32004KT 280V350 CAVOK 28/23 Q1010
TAF RJFM 182308Z 1900/2006 11006KT 9999 FEW030 
     BECMG 1912/1915 31006KT 
     BECMG 1921/2000 03013KT
       
RJFK 182300Z 35003KT 280V050 9999 FEW020 25/22 Q1012 RMK 1CU020 A2989 VOLCANIC ASH CLOUD S
TAF RJFK 182312Z 1900/2006 10011KT 9999 FEW030 
     BECMG 1915/1918 32004KT 
     BECMG 1921/2000 09013KT
       
ROIG 182300Z 05012KT 9999 FEW010 SCT018 29/27 Q1006
TAF ROIG 182308Z 1900/2006 05012KT 9999 FEW015 SCT025